Novo Mesto, Slovenia

1:19 PM CEST on September 03, 2015 (GMT +0200)
S52AS-6 | | Change Station
CLOSE
Current Station
Personal Weather Station
Location: Novo mesto, Dolenjska
Elevation: 591 ft
Nearby Weather Stations

Elev 591 ft 45.83 °N, 15.19 °E | Updated 8 minutes ago

Scattered Clouds
Scattered Clouds
72.6 °F
Feels Like 75 °F
N
4.0
Wind Variable Wind from SE
Gusts 4.0 mph

Today
High -- | Low -- °F
--% Chance of Precip.
Yesterday
High -- | Low -- °F
Precip. -- in
6:22 AM 7:34 PM
Waning Gibbous, 71% visible
Pressure 29.95 in
Visibility 6.2 miles
Clouds Few 3000 ft
Scattered Clouds 4000 ft
Heat Index 75 °F
Dew Point 62 °F
Humidity 70%
Rainfall 0.02 in
Snow Depth Not available.
UV 7 out of 12
Pollen Not available.
Air Quality Not available.
Flu Activity Not available.
METAR LJCE 031100Z 14001KT 9999 FEW030 SCT040 24/15 Q1014 RMK BLU
Pressure 29.95 in
Visibility 6.2 miles
Clouds Few 3000 ft
Scattered Clouds 4000 ft
Heat Index 75 °F
Dew Point 62 °F
Humidity 70%
Rainfall 0.02 in
Snow Depth Not available.
UV 7 out of 12
Pollen Not available.
Air Quality Not available.
Flu Activity Not available.
METAR LJCE 031100Z 14001KT 9999 FEW030 SCT040 24/15 Q1014 RMK BLU

10-Day Weather Forecast

×

Almanac

Astronomy

Sep. 03, 2015 Rise Set
Actual Time
Civil Twilight
Nautical Twilight
Astronomical Twilight
Moon
Length of Visible Light
Length of Day
Tomorrow will be .
, % of the Moon is Illuminated

Today's Extremes

Country Highs Country Lows

Community

WunderPhotos

Upload Photos

1,851,933 photos uploaded!

WunderBlogs® & News

Nearby

Air Quality

  Air Quality AQ Index Pollutant
Not available.

Snow Depth

Station Depth Elevation

Earthquake Activity

City Distance Mag. Time & Date
Minimum magnitude displayed is 2.5.

Coastal Water Temperatures

Place Temperature

Stations

Nearby Weather Stations

Station Location Temp. Windchill Dew Point Humidity Wind Precip. Elev Updated Type